POGODA: Poland

Lotnisko: Rzeszow-Jasionka

METAR KOD: EPRZ


METAR: EPRZ 230930Z 05010KT 9999 -RA SCT006 BKN009 07/06 Q1013


BLOK
Pogoda METAR
230930Z
Dzien: 23, Godzina: 09:30 UTC.
05010KT
Wiatr z kierunku 050, o predkosci 19 km/h
9999
Widzialnosc pozioma ponad 10 km.
-RA
slab. deszcz
SCT006
3/8 - 4/8 pokrycia nieba, chmurami o podstawie: 180 metrow
BKN009
5/8 - 7/8 pokrycia nieba, chmurami o podstawie: 270 metrow
07/06
Temperatura: powietrze 7°C, punkt rosy 6°C . Wilgotnosc wzgledna 86 %
Q1013
Cisnienie: 1013 hPa

Pogoda na innym lotnisku

Pogoda Gdansk-Rebiechowo WEATHER Poland  
Pogoda Katowice WEATHER Poland  
Pogoda Krakow WEATHER Poland  
Pogoda Poznan WEATHER Poland  
Pogoda Rzeszow-Jasionka WEATHER Poland  
Pogoda Szczecin WEATHER Poland  
Pogoda Warszawa-Okecie WEATHER Poland  
Pogoda Wroclaw Ii WEATHER Poland  

Pogoda w inny kraju

Strona startowa

(C) by GREGOR 2007
Ogłoszenia Towarzyskie